Time;durP1;ratioP1;P1;durP2;ratioP2;P2;SDS_P1;SDS_P2;PMS_P1;PMS_P2;Temp;Humidity;BMP_temperature;BMP_pressure;BME280_temperature;BME280_humidity;BME280_pressure;Samples;Min_cycle;Max_cycle;Signal;HPM_P1;HPM_P2
2023/11/10 00:00:10;;;;;;;6.35;4.45;;;;;;;4.84;73.73;91805.53;2071647;69;20140;-77
2023/11/10 00:02:41;;;;;;;7.20;4.60;;;;;;;4.97;73.94;91811.94;2065712;69;20192;-76
2023/11/10 00:05:07;;;;;;;7.07;3.75;;;;;;;5.01;72.80;91803.84;2068376;69;20133;-77
2023/11/10 00:07:34;;;;;;;10.20;4.78;;;;;;;5.02;73.48;91794.88;2067666;69;20563;-76
2023/11/10 00:10:00;;;;;;;6.25;3.90;;;;;;;5.01;72.84;91798.25;2071187;69;20152;-76
2023/11/10 00:12:27;;;;;;;8.25;4.53;;;;;;;4.99;73.13;91790.47;2071119;69;20159;-75
2023/11/10 00:14:52;;;;;;;7.47;4.22;;;;;;;5.00;72.52;91780.06;2070960;69;20154;-76
2023/11/10 00:17:18;;;;;;;8.27;3.80;;;;;;;5.03;72.20;91778.88;2070873;69;20231;-76
2023/11/10 00:19:44;;;;;;;5.30;3.42;;;;;;;4.98;72.44;91779.94;2071053;69;20602;-76
2023/11/10 00:22:12;;;;;;;7.57;4.10;;;;;;;4.68;73.77;91781.44;2071159;69;20664;-76
2023/11/10 00:24:45;;;;;;;6.82;3.97;;;;;;;4.65;73.89;91780.56;2070978;69;20152;-76
2023/11/10 00:27:14;;;;;;;;;;;;;;;4.75;73.11;91775.66;2071067;69;20685;-76
2023/11/10 00:29:48;;;;;;;6.95;3.35;;;;;;;4.72;72.63;91770.53;2071300;69;20052;-76
2023/11/10 00:32:14;;;;;;;5.82;3.42;;;;;;;4.48;73.42;91770.38;2071629;69;20190;-76
2023/11/10 00:34:41;;;;;;;8.40;3.88;;;;;;;4.57;73.25;91763.28;2068374;69;20144;-78
2023/11/10 00:37:09;;;;;;;6.43;3.38;;;;;;;4.60;73.04;91759.31;2071697;69;20140;-76
2023/11/10 00:39:35;;;;;;;8.73;3.28;;;;;;;4.58;72.86;91750.81;2071813;69;20160;-76
2023/11/10 00:42:01;;;;;;;2.67;1.60;;;;;;;4.57;72.82;91760.50;2068210;69;20148;-76
2023/11/10 00:44:27;;;;;;;4.55;2.95;;;;;;;4.40;72.82;91755.91;2068549;69;20151;-76
2023/11/10 00:46:53;;;;;;;5.85;3.38;;;;;;;4.42;72.76;91761.59;2071404;69;20144;-76
2023/11/10 00:49:19;;;;;;;8.23;3.70;;;;;;;4.25;72.97;91756.25;2068016;69;20172;-75
2023/11/10 00:51:45;;;;;;;7.50;3.53;;;;;;;4.36;72.96;91755.63;2068170;69;20629;-77
2023/11/10 00:54:11;;;;;;;5.38;3.58;;;;;;;4.40;73.00;91750.34;2071652;69;20256;-77
2023/11/10 00:56:37;;;;;;;4.65;3.30;;;;;;;4.33;72.51;91749.19;2071502;69;20191;-77
2023/11/10 00:59:03;;;;;;;7.72;3.42;;;;;;;4.32;72.84;91756.06;2071669;69;20144;-75
2023/11/10 01:01:33;;;;;;;4.57;2.72;;;;;;;4.21;72.96;91758.75;2068069;69;20132;-76
2023/11/10 01:03:59;;;;;;;6.70;2.55;;;;;;;4.31;72.72;91749.06;2071492;69;20209;-77
2023/11/10 01:06:24;;;;;;;4.53;1.85;;;;;;;4.22;73.07;91768.59;2068325;69;20179;-76
2023/11/10 01:08:50;;;;;;;4.85;2.80;;;;;;;4.08;73.03;91771.88;2071674;69;20625;-76
2023/11/10 01:11:16;;;;;;;8.07;3.40;;;;;;;3.43;75.52;91772.84;2071498;69;20160;-76
2023/11/10 01:13:42;;;;;;;7.35;3.53;;;;;;;3.35;77.70;91766.75;2068299;69;20144;-75
2023/11/10 01:16:07;;;;;;;8.15;3.97;;;;;;;3.52;77.32;91749.84;2071688;69;20152;-77
2023/11/10 01:18:33;;;;;;;6.10;3.17;;;;;;;3.82;76.02;91742.19;2071688;69;20149;-77
2023/11/10 01:21:01;;;;;;;5.38;3.38;;;;;;;3.86;74.56;91752.88;2071374;69;20153;-77
2023/11/10 01:23:29;;;;;;;5.45;3.05;;;;;;;3.90;74.72;91742.03;2071679;69;20144;-76
2023/11/10 01:25:55;;;;;;;6.70;2.47;;;;;;;4.00;74.37;91739.94;2071493;69;20245;-77
2023/11/10 01:28:20;;;;;;;3.97;2.30;;;;;;;3.93;73.46;91730.41;2065449;69;20132;-77
2023/11/10 01:30:47;;;;;;;4.07;2.70;;;;;;;3.66;75.41;91729.91;2071443;69;20221;-78
2023/11/10 01:33:12;;;;;;;7.72;2.50;;;;;;;3.81;74.71;91727.53;2068057;69;20176;-77
2023/11/10 01:35:39;;;;;;;5.85;2.55;;;;;;;3.64;74.21;91691.53;2067867;69;20143;-77
2023/11/10 01:38:05;;;;;;;4.80;2.33;;;;;;;3.82;74.35;91719.91;2071099;69;20240;-77
2023/11/10 01:40:41;;;;;;;4.38;2.20;;;;;;;3.97;74.90;91714.00;2070826;69;20312;-76
2023/11/10 01:43:08;;;;;;;5.40;1.92;;;;;;;3.99;73.92;91707.84;2071570;69;20144;-77
2023/11/10 01:45:34;;;;;;;3.05;1.90;;;;;;;3.92;74.99;91706.69;2071607;69;20175;-76
2023/11/10 01:48:00;;;;;;;3.08;1.83;;;;;;;3.96;74.82;91695.09;2071441;69;20463;-76
2023/11/10 01:50:27;;;;;;;3.55;2.55;;;;;;;3.48;76.50;91699.50;2067975;69;20144;-78
2023/11/10 01:52:53;;;;;;;4.47;2.40;;;;;;;3.70;75.02;91678.03;2071759;69;20159;-76
2023/11/10 01:55:20;;;;;;;4.85;2.40;;;;;;;3.91;74.35;91708.00;2071926;69;20248;-77
2023/11/10 01:57:51;;;;;;;5.40;2.47;;;;;;;3.86;74.36;91691.63;2071938;69;20171;-77
2023/11/10 02:00:26;;;;;;;3.25;2.33;;;;;;;3.65;74.65;91689.50;2071740;69;20214;-77
2023/11/10 02:02:54;;;;;;;3.70;2.30;;;;;;;3.66;75.38;91693.72;2068784;69;20161;-77
2023/11/10 02:05:23;;;;;;;4.05;2.53;;;;;;;3.64;76.12;91699.16;2071913;69;20168;-77
2023/11/10 02:07:51;;;;;;;4.15;2.60;;;;;;;3.73;75.01;91688.00;2071901;69;20136;-77
2023/11/10 02:10:19;;;;;;;5.70;2.55;;;;;;;3.84;74.57;91678.28;2071774;69;20136;-76
2023/11/10 02:12:57;;;;;;;3.88;2.22;;;;;;;4.02;74.29;91676.75;2068300;69;20193;-77
2023/11/10 02:15:24;;;;;;;3.83;2.17;;;;;;;3.93;74.23;91668.44;2067662;69;20258;-76
2023/11/10 02:17:52;;;;;;;4.80;2.60;;;;;;;3.93;74.96;91677.50;2067602;69;20152;-77
2023/11/10 02:20:18;;;;;;;7.97;2.58;;;;;;;4.03;74.40;91666.31;2068221;69;20148;-76
2023/11/10 02:22:47;;;;;;;4.13;2.55;;;;;;;4.07;74.43;91658.25;2067500;69;20137;-77
2023/11/10 02:25:14;;;;;;;3.88;2.40;;;;;;;4.11;74.83;91666.16;2068304;69;20242;-76
2023/11/10 02:27:40;;;;;;;5.32;2.85;;;;;;;3.87;75.97;91677.09;2068225;69;20143;-76
2023/11/10 02:30:07;;;;;;;4.18;2.60;;;;;;;4.03;74.65;91666.31;2068252;69;20670;-76
2023/11/10 02:32:33;;;;;;;3.60;2.42;;;;;;;4.15;74.12;91653.22;2068178;69;20144;-77
2023/11/10 02:35:00;;;;;;;3.78;2.58;;;;;;;4.16;73.91;91646.31;2068129;69;20160;-76
2023/11/10 02:37:26;;;;;;;4.13;2.60;;;;;;;3.99;75.16;91641.75;2067466;69;20140;-76
2023/11/10 02:39:55;;;;;;;3.80;2.58;;;;;;;4.12;74.49;91629.34;2067362;69;20175;-76
2023/11/10 02:42:21;;;;;;;5.50;2.80;;;;;;;4.15;74.11;91625.38;2064120;69;20153;-77
2023/11/10 02:44:49;;;;;;;3.75;2.25;;;;;;;3.87;74.09;91582.44;2064878;69;20144;-76
2023/11/10 02:47:15;;;;;;;4.88;2.20;;;;;;;4.19;74.80;91628.44;2064862;69;20176;-77
2023/11/10 02:49:43;;;;;;;4.82;2.00;;;;;;;4.04;75.19;91640.69;2061484;69;20157;-77
2023/11/10 02:52:10;;;;;;;3.75;2.30;;;;;;;4.16;74.66;91643.53;2064482;69;20542;-77
2023/11/10 02:54:35;;;;;;;3.25;2.22;;;;;;;4.29;74.52;91636.72;2064277;69;20200;-77
2023/11/10 02:57:01;;;;;;;4.25;2.28;;;;;;;4.32;73.98;91624.41;2063875;69;20172;-77
2023/11/10 02:59:27;;;;;;;3.22;2.17;;;;;;;4.36;74.20;91624.66;2064485;69;20236;-77
2023/11/10 03:01:52;;;;;;;2.65;2.20;;;;;;;4.34;74.22;91613.38;2063963;69;20149;-77
2023/11/10 03:04:18;;;;;;;4.90;2.25;;;;;;;4.38;74.32;91615.69;2064479;69;20165;-76
2023/11/10 03:06:44;;;;;;;2.90;1.90;;;;;;;4.41;73.55;91615.25;2064522;69;20292;-77
2023/11/10 03:09:10;;;;;;;4.60;1.90;;;;;;;4.49;73.53;91617.81;2064068;69;20583;-77
2023/11/10 03:11:35;;;;;;;4.25;2.00;;;;;;;4.42;73.66;91613.19;2064389;69;20238;-76
2023/11/10 03:14:01;;;;;;;5.43;2.15;;;;;;;4.22;73.75;91579.88;2065077;69;20141;-76
2023/11/10 03:16:27;;;;;;;3.28;2.30;;;;;;;4.36;73.57;91605.16;2064558;69;20145;-76
2023/11/10 03:18:55;;;;;;;3.28;2.20;;;;;;;4.36;74.15;91607.22;2067816;69;20597;-77
2023/11/10 03:21:23;;;;;;;5.72;2.08;;;;;;;4.45;73.74;91609.22;2067786;69;20140;-77
2023/11/10 03:23:49;;;;;;;3.10;2.00;;;;;;;4.44;73.59;91602.16;2067675;69;20280;-76
2023/11/10 03:26:14;;;;;;;3.35;2.20;;;;;;;4.42;73.86;91599.97;2067738;69;20140;-78
2023/11/10 03:28:41;;;;;;;5.40;1.90;;;;;;;4.34;73.01;91593.88;2067703;69;20136;-77
2023/11/10 03:31:07;;;;;;;5.10;2.20;;;;;;;4.20;74.16;91606.88;2067804;69;20608;-76
2023/11/10 03:33:34;;;;;;;3.22;1.92;;;;;;;4.19;74.08;91594.28;2068055;69;20141;-76
2023/11/10 03:36:01;;;;;;;3.17;1.95;;;;;;;4.17;74.25;91589.31;2067864;69;20152;-76
2023/11/10 03:38:27;;;;;;;5.95;2.42;;;;;;;4.11;75.32;91580.53;2064637;69;20180;-76
2023/11/10 03:40:53;;;;;;;3.90;2.30;;;;;;;4.22;74.37;91571.53;2068024;69;20140;-77
2023/11/10 03:43:19;;;;;;;4.07;2.40;;;;;;;4.25;74.21;91561.25;2064906;69;20145;-78
2023/11/10 03:45:46;;;;;;;4.97;2.30;;;;;;;4.28;74.27;91560.06;2062062;69;20168;-78
2023/11/10 03:48:12;;;;;;;4.13;1.88;;;;;;;4.00;74.92;91551.31;2068068;69;20172;-78
2023/11/10 03:50:43;;;;;;;2.83;2.05;;;;;;;4.18;74.86;91562.91;2068503;69;20175;-77
2023/11/10 03:53:09;;;;;;;4.70;2.33;;;;;;;4.03;74.59;91566.06;2068180;69;20139;-77
2023/11/10 03:55:35;;;;;;;4.13;2.20;;;;;;;4.10;74.23;91570.00;2062151;69;20179;-76
2023/11/10 03:58:01;;;;;;;6.30;2.20;;;;;;;4.17;74.08;91569.06;2068141;69;20147;-76
2023/11/10 04:00:27;;;;;;;5.15;2.30;;;;;;;4.16;74.16;91557.19;2068053;69;20148;-77
2023/11/10 04:02:54;;;;;;;4.32;1.90;;;;;;;4.18;73.76;91553.81;2064534;69;20530;-76
2023/11/10 04:05:20;;;;;;;3.40;2.05;;;;;;;4.11;74.18;91538.75;2064889;69;20152;-77
2023/11/10 04:07:45;;;;;;;3.15;1.73;;;;;;;4.26;74.12;91551.53;2068620;69;20171;-77
2023/11/10 04:10:11;;;;;;;4.00;1.95;;;;;;;4.22;74.10;91554.81;2068577;69;20141;-77
2023/11/10 04:12:37;;;;;;;3.88;2.00;;;;;;;4.13;74.20;91557.69;2065266;69;20149;-76
2023/11/10 04:15:04;;;;;;;2.85;1.92;;;;;;;4.12;74.48;91559.72;2068714;69;20235;-77
2023/11/10 04:17:30;;;;;;;4.55;2.10;;;;;;;4.01;74.76;91552.03;2068660;69;20140;-77
2023/11/10 04:19:55;;;;;;;3.05;1.98;;;;;;;4.05;75.23;91575.31;2068629;69;20164;-77
2023/11/10 04:22:21;;;;;;;4.55;2.42;;;;;;;4.08;74.91;91576.19;2068703;69;20156;-77
2023/11/10 04:24:46;;;;;;;3.50;2.40;;;;;;;4.11;74.41;91569.41;2068683;69;20137;-77
2023/11/10 04:27:12;;;;;;;4.30;2.28;;;;;;;4.12;74.48;91559.72;2068654;69;20591;-77
2023/11/10 04:29:39;;;;;;;4.10;2.08;;;;;;;3.86;75.18;91538.50;2068616;69;20143;-78
2023/11/10 04:32:05;;;;;;;4.00;2.30;;;;;;;4.10;74.84;91544.94;2068683;69;20141;-78
2023/11/10 04:34:34;;;;;;;3.38;2.22;;;;;;;3.99;75.24;91546.34;2065223;69;20607;-78
2023/11/10 04:36:59;;;;;;;4.18;2.10;;;;;;;3.99;75.31;91533.13;2065101;69;20175;-77
2023/11/10 04:39:25;;;;;;;3.97;2.10;;;;;;;3.90;74.94;91530.41;2068515;69;20208;-77
2023/11/10 04:41:50;;;;;;;3.38;2.17;;;;;;;3.91;75.19;91529.09;2068694;69;20582;-77
2023/11/10 04:44:16;;;;;;;5.40;2.42;;;;;;;3.87;75.49;91537.91;2068629;69;20145;-77
2023/11/10 04:46:43;;;;;;;3.30;2.25;;;;;;;3.87;75.61;91535.13;2068643;69;20137;-77
2023/11/10 04:49:13;;;;;;;6.32;2.67;;;;;;;3.82;75.99;91550.09;2068578;69;20190;-77
2023/11/10 04:51:39;;;;;;;3.95;2.40;;;;;;;3.68;76.90;91543.59;2065194;69;20183;-77
2023/11/10 04:54:05;;;;;;;4.85;2.35;;;;;;;3.93;76.09;91562.63;2068591;69;20144;-77
2023/11/10 04:56:33;;;;;;;5.72;2.67;;;;;;;3.97;75.57;91560.09;2068377;69;20147;-77
2023/11/10 04:58:59;;;;;;;3.80;2.20;;;;;;;3.90;76.79;91547.13;2068714;69;20151;-76
2023/11/10 05:01:26;;;;;;;3.85;2.38;;;;;;;3.83;76.00;91529.28;2068612;69;20141;-78
2023/11/10 05:03:52;;;;;;;4.93;2.25;;;;;;;3.89;76.06;91546.38;2068570;69;20133;-77
2023/11/10 05:06:28;;;;;;;4.63;2.58;;;;;;;3.95;74.83;91548.84;2068563;69;20128;-77
2023/11/10 05:08:54;;;;;;;3.47;2.50;;;;;;;3.88;75.46;91546.97;2068568;69;20145;-77
2023/11/10 05:11:19;;;;;;;4.00;2.53;;;;;;;3.92;75.20;91538.91;2065112;69;20151;-78
2023/11/10 05:13:47;;;;;;;6.95;2.70;;;;;;;3.74;75.64;91530.78;2068425;69;20159;-78
2023/11/10 05:16:13;;;;;;;7.15;3.30;;;;;;;3.79;75.76;91526.94;2068384;69;20160;-77
2023/11/10 05:18:39;;;;;;;7.35;3.97;;;;;;;3.46;76.66;91517.78;2068510;69;20133;-77
2023/11/10 05:21:04;;;;;;;7.25;4.00;;;;;;;3.51;76.70;91508.38;2068587;69;20533;-77
2023/11/10 05:23:30;;;;;;;9.45;5.43;;;;;;;3.52;77.09;91518.16;2068540;69;20136;-77
2023/11/10 05:25:56;;;;;;;7.97;4.28;;;;;;;3.61;76.97;91522.94;2068384;69;20141;-77
2023/11/10 05:28:22;;;;;;;10.43;6.07;;;;;;;3.69;76.16;91529.06;2068630;69;20128;-77
2023/11/10 05:30:47;;;;;;;11.52;7.15;;;;;;;3.66;76.04;91521.16;2068558;69;20140;-77
2023/11/10 05:33:13;;;;;;;13.13;6.10;;;;;;;3.63;76.04;91534.25;2065200;69;20156;-76
2023/11/10 05:35:38;;;;;;;8.25;5.47;;;;;;;3.56;76.34;91535.13;2068451;69;20157;-75
2023/11/10 05:38:04;;;;;;;7.30;4.60;;;;;;;3.62;76.16;91526.47;2068467;69;20149;-75
2023/11/10 05:40:30;;;;;;;10.73;4.40;;;;;;;3.51;76.64;91511.88;2068245;69;20144;-78
2023/11/10 05:42:55;;;;;;;6.78;4.28;;;;;;;3.46;77.18;91501.09;2068522;69;20158;-77
2023/11/10 05:45:21;;;;;;;7.43;4.35;;;;;;;3.45;77.25;91502.41;2068499;69;20140;-78
2023/11/10 05:47:46;;;;;;;5.85;3.58;;;;;;;3.51;77.03;91505.59;2068503;69;20670;-76
2023/11/10 05:50:14;;;;;;;5.18;3.33;;;;;;;3.55;76.66;91500.28;2068541;69;20135;-77
2023/11/10 05:52:39;;;;;;;3.15;2.22;;;;;;;3.56;76.06;91505.25;2068481;69;20151;-77
2023/11/10 05:55:06;;;;;;;7.30;3.53;;;;;;;3.36;76.99;91511.53;2068305;69;20148;-77
2023/11/10 05:57:31;;;;;;;7.70;4.05;;;;;;;3.42;76.50;91509.88;2068452;69;20156;-77
2023/11/10 05:59:59;;;;;;;11.20;6.35;;;;;;;3.41;76.83;91516.78;2068668;69;20226;-77
2023/11/10 06:02:25;;;;;;;12.57;6.20;;;;;;;3.43;76.45;91519.69;2065192;69;20221;-77
2023/11/10 06:04:52;;;;;;;7.45;5.00;;;;;;;3.34;77.02;91531.59;2068431;69;20232;-77
2023/11/10 06:07:19;;;;;;;8.95;5.80;;;;;;;3.42;76.61;91532.13;2068465;69;20190;-76
2023/11/10 06:09:46;;;;;;;9.70;5.00;;;;;;;3.42;76.05;91531.41;2068461;69;20137;-77
2023/11/10 06:12:12;;;;;;;4.20;2.72;;;;;;;3.40;76.46;91528.50;2068621;69;20491;-79
2023/11/10 06:14:39;;;;;;;10.15;5.18;;;;;;;3.05;78.11;91531.69;2068395;69;20212;-78
2023/11/10 06:17:06;;;;;;;9.63;4.65;;;;;;;3.21;78.43;91541.16;2068630;69;20133;-77
2023/11/10 06:19:31;;;;;;;7.75;5.30;;;;;;;3.25;76.80;91544.22;2068401;69;20136;-78
2023/11/10 06:21:58;;;;;;;11.82;7.10;;;;;;;3.02;77.55;91538.44;2068527;69;20144;-77
2023/11/10 06:24:24;;;;;;;11.55;7.90;;;;;;;2.91;77.60;91539.78;2065139;69;20137;-76
2023/11/10 06:26:49;;;;;;;12.23;7.15;;;;;;;3.06;77.36;91522.03;2065009;69;20132;-76
2023/11/10 06:29:16;;;;;;;10.50;6.63;;;;;;;3.21;76.98;91535.59;2068516;69;20184;-76
2023/11/10 06:31:41;;;;;;;12.60;7.38;;;;;;;3.20;77.41;91525.06;2068353;69;20129;-76
2023/11/10 06:34:07;;;;;;;10.98;6.95;;;;;;;3.25;76.64;91535.88;2068365;69;20152;-77
2023/11/10 06:36:33;;;;;;;13.18;6.88;;;;;;;3.13;76.64;91531.53;2064877;69;20140;-77
2023/11/10 06:38:58;;;;;;;17.83;6.78;;;;;;;3.28;76.61;91529.13;2068433;69;20191;-76
2023/11/10 06:41:24;;;;;;;8.85;4.32;;;;;;;3.35;77.10;91524.72;2068225;69;20132;-76
2023/11/10 06:43:50;;;;;;;8.73;3.92;;;;;;;3.43;76.59;91530.06;2068361;69;20657;-77
2023/11/10 06:46:22;;;;;;;17.92;8.57;;;;;;;2.90;78.40;91496.63;2064984;69;20183;-77
2023/11/10 06:48:52;;;;;;;;;;;;;;;3.37;77.14;91538.75;2068463;69;20240;-77
2023/11/10 06:51:21;;;;;;;13.45;7.50;;;;;;;3.30;77.03;91539.66;2068386;69;20041;-77
2023/11/10 06:53:46;;;;;;;13.70;7.82;;;;;;;3.31;76.62;91546.69;2068376;69;20159;-77
2023/11/10 06:56:12;;;;;;;12.80;6.80;;;;;;;3.35;76.65;91546.25;2064875;69;20180;-77
2023/11/10 06:58:39;;;;;;;15.63;6.75;;;;;;;3.34;76.28;91544.75;2068478;69;20561;-76
2023/11/10 07:01:08;;;;;;;12.88;7.38;;;;;;;3.35;76.47;91551.81;2068343;69;20587;-77
2023/11/10 07:03:34;;;;;;;11.80;6.35;;;;;;;3.30;77.00;91554.31;2064946;69;20148;-76
2023/11/10 07:06:00;;;;;;;12.18;7.00;;;;;;;3.17;77.24;91563.13;2068296;69;20167;-77
2023/11/10 07:08:27;;;;;;;13.20;7.47;;;;;;;3.16;77.35;91552.59;2068648;69;20233;-79
2023/11/10 07:10:57;;;;;;;15.80;7.60;;;;;;;3.31;77.10;91552.97;2068369;69;20225;-78
2023/11/10 07:13:24;;;;;;;19.10;11.98;;;;;;;3.28;76.86;91547.88;2068431;69;20149;-77
2023/11/10 07:15:50;;;;;;;18.25;10.35;;;;;;;3.39;76.68;91546.50;2068313;69;20156;-78
2023/11/10 07:18:17;;;;;;;15.38;9.77;;;;;;;3.40;76.90;91539.63;2068298;69;20169;-77
2023/11/10 07:20:44;;;;;;;9.23;5.88;;;;;;;3.39;76.61;91536.13;2064915;69;20648;-79
2023/11/10 07:23:11;;;;;;;10.70;6.53;;;;;;;3.23;78.05;91549.63;2068372;69;20137;-80
2023/11/10 07:25:37;;;;;;;17.08;10.20;;;;;;;3.07;78.21;91523.50;2068183;69;20188;-80
2023/11/10 07:28:03;;;;;;;24.15;10.93;;;;;;;3.28;77.71;91553.44;2068371;69;20149;-79
2023/11/10 07:30:29;;;;;;;16.08;10.18;;;;;;;3.19;76.84;91509.69;2064980;69;20153;-78
2023/11/10 07:32:55;;;;;;;15.90;8.93;;;;;;;3.45;76.71;91556.00;2068288;69;20165;-81
2023/11/10 07:35:21;;;;;;;20.10;11.63;;;;;;;3.48;76.88;91551.28;2068375;69;20292;-78
2023/11/10 07:37:48;;;;;;;24.35;14.65;;;;;;;3.49;76.73;91549.97;2068196;69;20149;-77
2023/11/10 07:40:15;;;;;;;27.45;13.45;;;;;;;3.48;77.54;91548.50;2064694;69;20144;-79
2023/11/10 07:42:44;;;;;;;27.17;13.70;;;;;;;3.52;76.49;91546.72;2068274;69;20177;-78
2023/11/10 07:45:14;;;;;;;28.27;14.85;;;;;;;3.45;76.83;91546.94;2068226;69;20190;-78
2023/11/10 07:47:46;;;;;;;29.10;15.10;;;;;;;3.34;77.63;91555.88;2068498;69;20518;-79
2023/11/10 07:50:14;;;;;;;37.35;18.90;;;;;;;3.34;77.37;91547.53;2068244;69;20248;-78
2023/11/10 07:52:42;;;;;;;33.63;16.20;;;;;;;3.42;77.11;91546.03;2068251;69;20156;-79
2023/11/10 07:55:09;;;;;;;26.65;13.45;;;;;;;3.35;76.95;91537.91;2068032;69;20322;-78
2023/11/10 07:57:35;;;;;;;21.33;11.32;;;;;;;3.55;76.55;91545.53;2068246;69;20129;-79
2023/11/10 08:00:05;;;;;;;19.63;10.68;;;;;;;3.59;76.73;91541.59;2068212;69;20586;-78
2023/11/10 08:02:37;;;;;;;17.85;8.85;;;;;;;3.70;76.78;91541.66;2068325;69;20145;-79
2023/11/10 08:05:03;;;;;;;19.42;11.52;;;;;;;3.31;78.36;91549.47;2068260;69;20140;-79
2023/11/10 08:07:30;;;;;;;23.13;12.48;;;;;;;3.35;78.61;91549.03;2068185;69;20137;-79
2023/11/10 08:09:56;;;;;;;17.65;10.55;;;;;;;3.69;77.44;91540.19;2068139;69;20239;-78
2023/11/10 08:12:22;;;;;;;17.73;10.00;;;;;;;4.36;76.86;91534.78;2068182;69;20232;-79
2023/11/10 08:14:48;;;;;;;19.05;9.82;;;;;;;4.89;76.54;91526.94;2068040;69;20128;-78
2023/11/10 08:17:14;;;;;;;17.73;9.30;;;;;;;5.66;81.93;91523.25;2064885;69;20153;-79
2023/11/10 08:19:41;;;;;;;16.30;11.02;;;;;;;6.08;77.79;91527.84;2068120;69;20133;-78
2023/11/10 08:22:07;;;;;;;22.25;10.25;;;;;;;6.18;76.04;91522.13;2068058;69;20157;-77
2023/11/10 08:24:35;;;;;;;14.82;6.63;;;;;;;6.67;73.93;91529.75;2067946;69;20133;-80
2023/11/10 08:27:01;;;;;;;10.85;3.75;;;;;;;7.15;71.00;91523.31;2068045;69;20207;-77
2023/11/10 08:29:26;;;;;;;6.90;3.85;;;;;;;7.47;69.25;91535.53;2068364;69;20697;-78
2023/11/10 08:31:52;;;;;;;10.93;4.60;;;;;;;7.22;67.94;91527.88;2064853;69;20141;-77
2023/11/10 08:34:21;;;;;;;7.15;3.97;;;;;;;7.06;66.46;91532.63;2068157;69;20147;-79
2023/11/10 08:36:48;;;;;;;6.25;3.90;;;;;;;6.94;66.96;91537.53;2068052;69;20147;-80
2023/11/10 08:39:18;;;;;;;6.68;3.95;;;;;;;6.97;66.60;91539.13;2068152;69;20245;-78
2023/11/10 08:41:48;;;;;;;5.45;3.30;;;;;;;6.88;66.59;91547.06;2070199;69;20152;-80
2023/11/10 08:44:14;;;;;;;4.15;2.67;;;;;;;7.13;65.75;91535.09;2071488;69;20144;-81
2023/11/10 08:46:43;;;;;;;4.78;2.90;;;;;;;7.21;65.21;91534.84;2071273;69;20136;-80
2023/11/10 08:49:09;;;;;;;4.40;2.72;;;;;;;7.63;64.71;91527.97;2068234;69;20148;-78
2023/11/10 08:51:35;;;;;;;3.17;2.40;;;;;;;8.04;63.49;91521.66;2071438;69;20241;-79
2023/11/10 08:54:01;;;;;;;4.10;2.92;;;;;;;8.32;63.38;91521.63;2072017;69;20152;-78
2023/11/10 08:56:28;;;;;;;4.22;2.45;;;;;;;8.12;61.90;91504.53;2071733;69;20604;-78
2023/11/10 08:58:54;;;;;;;3.15;1.83;;;;;;;8.25;61.90;91503.06;2071981;69;20144;-78
2023/11/10 09:01:19;;;;;;;2.50;1.88;;;;;;;8.03;61.96;91495.00;2068478;69;20164;-79
2023/11/10 09:03:45;;;;;;;3.47;1.80;;;;;;;8.13;61.94;91500.38;2068465;69;20140;-77
2023/11/10 09:06:10;;;;;;;2.42;1.20;;;;;;;8.55;60.82;91482.13;2071983;69;20136;-79
2023/11/10 09:08:36;;;;;;;1.92;1.27;;;;;;;8.74;59.81;91480.94;2071722;69;20187;-79
2023/11/10 09:11:02;;;;;;;3.40;1.20;;;;;;;8.86;59.47;91478.72;2071667;69;20613;-79
2023/11/10 09:13:27;;;;;;;5.43;2.90;;;;;;;9.30;64.23;91487.78;2071927;69;20144;-79
2023/11/10 09:15:53;;;;;;;4.72;2.90;;;;;;;9.53;63.28;91494.38;2071844;69;20163;-79
2023/11/10 09:18:18;;;;;;;7.07;3.47;;;;;;;9.76;61.87;91496.84;2071764;69;20644;-79
2023/11/10 09:20:46;;;;;;;7.93;3.47;;;;;;;10.12;61.65;91508.22;2071654;69;20139;-78
2023/11/10 09:23:11;;;;;;;5.55;3.20;;;;;;;10.33;61.11;91509.84;2071823;69;20144;-79
2023/11/10 09:25:38;;;;;;;6.40;3.13;;;;;;;10.56;60.64;91503.06;2071892;69;20213;-79
2023/11/10 09:28:04;;;;;;;6.70;2.95;;;;;;;11.67;59.47;91509.56;2072121;69;20150;-79
2023/11/10 09:30:33;;;;;;;3.70;2.70;;;;;;;12.06;55.80;91501.84;2068473;69;20148;-78
2023/11/10 09:32:59;;;;;;;4.32;2.08;;;;;;;13.16;53.46;91488.63;2071921;69;20129;-78
2023/11/10 09:35:26;;;;;;;3.33;2.03;;;;;;;13.42;52.47;91485.91;2071945;69;20156;-78
2023/11/10 09:37:52;;;;;;;4.45;2.35;;;;;;;13.53;53.33;91489.78;2071778;69;20140;-79
2023/11/10 09:40:23;;;;;;;4.70;2.90;;;;;;;13.56;52.75;91477.91;2071650;69;20145;-78
2023/11/10 09:42:49;;;;;;;2.83;1.85;;;;;;;13.22;50.81;91471.88;2071869;69;20148;-78
2023/11/10 09:45:15;;;;;;;4.72;2.00;;;;;;;13.21;51.38;91471.13;2071842;69;20155;-79
2023/11/10 09:47:42;;;;;;;4.60;1.60;;;;;;;13.52;51.44;91469.28;2068536;69;20209;-78
2023/11/10 09:50:15;;;;;;;1.83;1.10;;;;;;;13.13;50.42;91470.88;2071714;69;20148;-78
2023/11/10 09:52:41;;;;;;;5.03;1.27;;;;;;;12.75;50.68;91467.53;2071865;69;20156;-79
2023/11/10 09:55:07;;;;;;;1.52;1.20;;;;;;;12.19;49.76;91472.69;2071575;69;20144;-79
2023/11/10 09:57:33;;;;;;;3.45;2.30;;;;;;;13.47;49.46;91476.19;2071732;69;20154;-80
2023/11/10 10:00:00;;;;;;;8.02;4.40;;;;;;;13.52;48.86;91471.41;2071800;69;20128;-80
2023/11/10 10:02:26;;;;;;;5.53;3.20;;;;;;;12.92;48.68;91463.13;2071858;69;20175;-79
2023/11/10 10:04:51;;;;;;;11.85;7.78;;;;;;;12.65;50.25;91467.94;2071808;69;20526;-79
2023/11/10 10:07:17;;;;;;;3.35;1.88;;;;;;;12.65;49.92;91464.38;2071955;69;20160;-79
2023/11/10 10:09:44;;;;;;;2.70;1.83;;;;;;;11.82;48.79;91437.56;2071864;69;20168;-79
2023/11/10 10:12:11;;;;;;;12.32;6.93;;;;;;;12.34;49.01;91454.16;2071751;69;20156;-78
2023/11/10 10:14:38;;;;;;;2.45;1.50;;;;;;;12.62;49.32;91451.56;2071740;69;20222;-78
2023/11/10 10:17:04;;;;;;;2.85;1.10;;;;;;;12.62;48.75;91443.09;2071648;69;20235;-80
2023/11/10 10:19:29;;;;;;;2.03;1.40;;;;;;;14.35;46.80;91445.47;2071846;69;20134;-80
2023/11/10 10:22:00;;;;;;;3.95;1.70;;;;;;;15.20;45.67;91451.88;2071851;69;20613;-79
2023/11/10 10:24:26;;;;;;;3.35;1.92;;;;;;;15.00;44.03;91449.28;2071692;69;20645;-81
2023/11/10 10:26:52;;;;;;;2.80;2.00;;;;;;;15.80;43.55;91443.31;2071646;69;20144;-81
2023/11/10 10:29:18;;;;;;;3.75;2.28;;;;;;;16.13;42.65;91436.22;2071829;69;20148;-82
2023/11/10 10:31:45;;;;;;;1.45;1.05;;;;;;;17.63;41.17;91434.56;2071655;69;20146;-83
2023/11/10 10:34:12;;;;;;;6.53;3.65;;;;;;;16.47;43.18;91424.09;2071695;69;20159;-82
2023/11/10 10:36:38;;;;;;;4.30;1.58;;;;;;;16.67;42.04;91426.56;2071746;69;20136;-81
2023/11/10 10:39:12;;;;;;;1.90;1.30;;;;;;;17.27;41.99;91424.09;2071754;69;20614;-79
2023/11/10 10:41:42;;;;;;;2.10;1.35;;;;;;;16.23;41.16;91415.81;2068371;69;20629;-80
2023/11/10 10:44:08;;;;;;;1.42;1.20;;;;;;;15.97;42.32;91416.00;2071657;69;20580;-81
2023/11/10 10:46:35;;;;;;;2.40;1.50;;;;;;;16.09;43.16;91410.59;2071686;69;20144;-78
2023/11/10 10:49:06;;;;;;;1.60;1.27;;;;;;;16.19;42.14;91407.94;2071909;69;20179;-79
2023/11/10 10:51:37;;;;;;;3.13;1.23;;;;;;;16.10;42.86;91402.78;2071830;69;20228;-80
2023/11/10 10:54:05;;;;;;;2.30;1.60;;;;;;;16.33;42.84;91398.25;2071719;69;20132;-80
2023/11/10 10:56:35;;;;;;;2.13;1.30;;;;;;;16.17;43.21;91399.41;2071590;69;20144;-80
2023/11/10 10:59:02;;;;;;;2.47;1.05;;;;;;;16.17;41.44;91388.03;2071631;69;20148;-81
2023/11/10 11:01:28;;;;;;;1.30;1.10;;;;;;;16.77;41.60;91393.41;2071600;69;20517;-79
2023/11/10 11:04:20;;;;;;;1.52;1.00;;;;;;;16.68;41.87;91394.66;2071772;69;20580;-81
2023/11/10 11:07:17;;;;;;;1.75;1.10;;;;;;;17.30;41.82;91387.13;2071843;69;20152;-81
2023/11/10 11:10:14;;;;;;;3.05;1.10;;;;;;;17.24;40.76;91385.63;2071522;69;20176;-78
2023/11/10 11:12:58;;;;;;;2.00;1.17;;;;;;;17.31;41.37;91388.56;2071715;69;20150;-79
2023/11/10 11:15:39;;;;;;;1.73;1.52;;;;;;;18.44;40.30;91388.63;2071283;69;20503;-79
2023/11/10 11:18:20;;;;;;;2.47;1.63;;;;;;;18.65;39.60;91387.44;2071541;69;20140;-81
2023/11/10 11:20:48;;;;;;;2.65;1.40;;;;;;;17.72;40.51;91387.03;2071554;69;20152;-80
2023/11/10 11:23:15;;;;;;;2.33;1.40;;;;;;;16.68;41.18;91391.09;2071556;69;20144;-81
2023/11/10 11:25:41;;;;;;;1.92;1.48;;;;;;;15.92;42.15;91383.28;2071524;69;20145;-80
2023/11/10 11:28:10;;;;;;;1.88;1.58;;;;;;;15.78;42.85;91374.47;2071405;69;20168;-80
2023/11/10 11:30:37;;;;;;;4.05;1.90;;;;;;;15.36;44.36;91383.50;2071477;69;20133;-79
2023/11/10 11:33:12;;;;;;;3.55;1.60;;;;;;;15.40;43.48;91380.75;2068158;69;20595;-79
2023/11/10 11:35:47;;;;;;;4.03;1.50;;;;;;;15.56;43.42;91375.41;2071576;69;20152;-79
2023/11/10 11:38:40;;;;;;;2.92;1.73;;;;;;;15.37;44.37;91377.16;2071759;69;20160;-78